sensor_id;sensor_type;location;lat;lon;timestamp;P1;durP1;ratioP1;P2;durP2;ratioP2
76155;SDS011;64906;51.290;7.348;2022-12-07T00:01:15;4.80;;;3.72;;
76155;SDS011;64906;51.290;7.348;2022-12-07T00:03:45;4.90;;;3.88;;
76155;SDS011;64906;51.290;7.348;2022-12-07T00:06:13;5.05;;;4.30;;
76155;SDS011;64906;51.290;7.348;2022-12-07T00:08:39;4.82;;;3.72;;
76155;SDS011;64906;51.290;7.348;2022-12-07T00:11:09;5.20;;;3.88;;
76155;SDS011;64906;51.290;7.348;2022-12-07T00:13:36;4.68;;;3.75;;
76155;SDS011;64906;51.290;7.348;2022-12-07T00:16:03;5.65;;;4.22;;
76155;SDS011;64906;51.290;7.348;2022-12-07T00:18:31;4.97;;;3.83;;
76155;SDS011;64906;51.290;7.348;2022-12-07T00:21:03;5.20;;;3.90;;
76155;SDS011;64906;51.290;7.348;2022-12-07T00:23:30;4.93;;;3.67;;
76155;SDS011;64906;51.290;7.348;2022-12-07T00:26:02;5.35;;;3.72;;
76155;SDS011;64906;51.290;7.348;2022-12-07T00:28:30;4.72;;;3.70;;
76155;SDS011;64906;51.290;7.348;2022-12-07T00:31:03;5.03;;;3.73;;
76155;SDS011;64906;51.290;7.348;2022-12-07T00:33:30;4.57;;;3.22;;
76155;SDS011;64906;51.290;7.348;2022-12-07T00:35:56;4.88;;;3.85;;
76155;SDS011;64906;51.290;7.348;2022-12-07T00:38:22;4.70;;;3.47;;
76155;SDS011;64906;51.290;7.348;2022-12-07T00:41:21;5.00;;;3.75;;
76155;SDS011;64906;51.290;7.348;2022-12-07T00:43:41;4.63;;;3.38;;
76155;SDS011;64906;51.290;7.348;2022-12-07T00:46:07;4.47;;;3.33;;
76155;SDS011;64906;51.290;7.348;2022-12-07T00:48:33;4.65;;;3.45;;
76155;SDS011;64906;51.290;7.348;2022-12-07T00:50:58;4.40;;;3.20;;
76155;SDS011;64906;51.290;7.348;2022-12-07T00:53:24;4.88;;;3.30;;
76155;SDS011;64906;51.290;7.348;2022-12-07T00:55:50;4.60;;;3.47;;
76155;SDS011;64906;51.290;7.348;2022-12-07T00:58:15;4.50;;;3.20;;
76155;SDS011;64906;51.290;7.348;2022-12-07T01:00:42;5.07;;;3.38;;
76155;SDS011;64906;51.290;7.348;2022-12-07T01:03:08;4.38;;;3.30;;
76155;SDS011;64906;51.290;7.348;2022-12-07T01:05:35;4.72;;;3.20;;
76155;SDS011;64906;51.290;7.348;2022-12-07T01:08:00;5.45;;;3.63;;
76155;SDS011;64906;51.290;7.348;2022-12-07T01:10:26;4.47;;;3.20;;
76155;SDS011;64906;51.290;7.348;2022-12-07T01:12:51;5.05;;;3.95;;
76155;SDS011;64906;51.290;7.348;2022-12-07T01:15:17;4.55;;;3.38;;
76155;SDS011;64906;51.290;7.348;2022-12-07T01:17:42;4.20;;;3.17;;
76155;SDS011;64906;51.290;7.348;2022-12-07T01:20:07;4.77;;;3.43;;
76155;SDS011;64906;51.290;7.348;2022-12-07T01:22:37;4.63;;;3.15;;
76155;SDS011;64906;51.290;7.348;2022-12-07T01:25:05;4.78;;;3.42;;
76155;SDS011;64906;51.290;7.348;2022-12-07T01:27:32;4.57;;;3.40;;
76155;SDS011;64906;51.290;7.348;2022-12-07T01:29:58;4.82;;;3.55;;
76155;SDS011;64906;51.290;7.348;2022-12-07T01:32:23;4.40;;;3.20;;
76155;SDS011;64906;51.290;7.348;2022-12-07T01:34:49;4.60;;;3.20;;
76155;SDS011;64906;51.290;7.348;2022-12-07T01:37:14;4.30;;;3.00;;
76155;SDS011;64906;51.290;7.348;2022-12-07T01:39:39;4.13;;;3.00;;
76155;SDS011;64906;51.290;7.348;2022-12-07T01:42:08;4.50;;;3.20;;
76155;SDS011;64906;51.290;7.348;2022-12-07T01:45:14;4.63;;;3.35;;
76155;SDS011;64906;51.290;7.348;2022-12-07T01:47:38;4.15;;;2.83;;
76155;SDS011;64906;51.290;7.348;2022-12-07T01:50:03;4.37;;;3.27;;
76155;SDS011;64906;51.290;7.348;2022-12-07T01:52:30;4.20;;;3.03;;
76155;SDS011;64906;51.290;7.348;2022-12-07T01:55:03;4.40;;;3.00;;
76155;SDS011;64906;51.290;7.348;2022-12-07T01:57:31;4.68;;;3.15;;
76155;SDS011;64906;51.290;7.348;2022-12-07T01:59:59;4.15;;;3.00;;
76155;SDS011;64906;51.290;7.348;2022-12-07T02:02:35;4.30;;;3.45;;
76155;SDS011;64906;51.290;7.348;2022-12-07T02:05:03;4.05;;;2.90;;
76155;SDS011;64906;51.290;7.348;2022-12-07T02:07:30;4.18;;;2.90;;
76155;SDS011;64906;51.290;7.348;2022-12-07T02:10:11;4.30;;;2.97;;
76155;SDS011;64906;51.290;7.348;2022-12-07T02:12:44;4.43;;;2.80;;
76155;SDS011;64906;51.290;7.348;2022-12-07T02:15:11;4.55;;;2.97;;
76155;SDS011;64906;51.290;7.348;2022-12-07T02:17:41;4.07;;;2.90;;
76155;SDS011;64906;51.290;7.348;2022-12-07T02:20:33;4.10;;;2.83;;
76155;SDS011;64906;51.290;7.348;2022-12-07T02:26:19;3.97;;;2.75;;
76155;SDS011;64906;51.290;7.348;2022-12-07T02:28:49;4.10;;;2.92;;
76155;SDS011;64906;51.290;7.348;2022-12-07T02:31:17;3.88;;;2.83;;
76155;SDS011;64906;51.290;7.348;2022-12-07T02:33:48;4.03;;;2.72;;
76155;SDS011;64906;51.290;7.348;2022-12-07T02:36:22;3.90;;;2.60;;
76155;SDS011;64906;51.290;7.348;2022-12-07T02:38:54;4.05;;;2.80;;
76155;SDS011;64906;51.290;7.348;2022-12-07T02:44:27;3.95;;;2.72;;
76155;SDS011;64906;51.290;7.348;2022-12-07T02:46:56;4.22;;;3.15;;
76155;SDS011;64906;51.290;7.348;2022-12-07T02:49:26;4.05;;;2.88;;
76155;SDS011;64906;51.290;7.348;2022-12-07T02:51:52;4.00;;;2.60;;
76155;SDS011;64906;51.290;7.348;2022-12-07T02:54:19;4.20;;;2.80;;
76155;SDS011;64906;51.290;7.348;2022-12-07T02:56:48;4.00;;;2.72;;
76155;SDS011;64906;51.290;7.348;2022-12-07T03:03:10;4.20;;;2.70;;
76155;SDS011;64906;51.290;7.348;2022-12-07T03:10:28;4.32;;;2.80;;
76155;SDS011;64906;51.290;7.348;2022-12-07T03:16:05;4.35;;;2.80;;
76155;SDS011;64906;51.290;7.348;2022-12-07T03:18:49;4.15;;;2.60;;
76155;SDS011;64906;51.290;7.348;2022-12-07T03:21:18;4.75;;;2.80;;
76155;SDS011;64906;51.290;7.348;2022-12-07T03:23:49;4.15;;;2.88;;
76155;SDS011;64906;51.290;7.348;2022-12-07T03:26:22;3.90;;;2.50;;
76155;SDS011;64906;51.290;7.348;2022-12-07T03:28:54;3.55;;;2.40;;
76155;SDS011;64906;51.290;7.348;2022-12-07T03:31:25;3.90;;;2.67;;
76155;SDS011;64906;51.290;7.348;2022-12-07T03:34:44;4.50;;;2.47;;
76155;SDS011;64906;51.290;7.348;2022-12-07T03:36:46;4.05;;;2.50;;
76155;SDS011;64906;51.290;7.348;2022-12-07T03:39:33;3.83;;;2.63;;
76155;SDS011;64906;51.290;7.348;2022-12-07T03:42:04;3.92;;;2.40;;
76155;SDS011;64906;51.290;7.348;2022-12-07T03:44:32;4.00;;;2.40;;
76155;SDS011;64906;51.290;7.348;2022-12-07T03:47:01;3.75;;;2.28;;
76155;SDS011;64906;51.290;7.348;2022-12-07T03:49:30;4.18;;;2.22;;
76155;SDS011;64906;51.290;7.348;2022-12-07T03:54:55;3.95;;;2.80;;
76155;SDS011;64906;51.290;7.348;2022-12-07T03:57:25;3.42;;;2.30;;
76155;SDS011;64906;51.290;7.348;2022-12-07T03:59:53;4.90;;;2.45;;
76155;SDS011;64906;51.290;7.348;2022-12-07T04:02:20;3.92;;;2.42;;
76155;SDS011;64906;51.290;7.348;2022-12-07T04:04:47;3.50;;;2.20;;
76155;SDS011;64906;51.290;7.348;2022-12-07T04:07:12;4.20;;;2.53;;
76155;SDS011;64906;51.290;7.348;2022-12-07T04:09:38;3.72;;;2.38;;
76155;SDS011;64906;51.290;7.348;2022-12-07T04:12:04;3.70;;;2.30;;
76155;SDS011;64906;51.290;7.348;2022-12-07T04:14:29;3.75;;;2.20;;
76155;SDS011;64906;51.290;7.348;2022-12-07T04:16:56;3.58;;;2.20;;
76155;SDS011;64906;51.290;7.348;2022-12-07T04:19:23;3.38;;;2.10;;
76155;SDS011;64906;51.290;7.348;2022-12-07T04:21:51;3.33;;;2.00;;
76155;SDS011;64906;51.290;7.348;2022-12-07T04:24:16;3.67;;;2.23;;
76155;SDS011;64906;51.290;7.348;2022-12-07T04:26:42;3.55;;;2.15;;
76155;SDS011;64906;51.290;7.348;2022-12-07T04:29:08;3.30;;;2.08;;
76155;SDS011;64906;51.290;7.348;2022-12-07T04:31:34;3.40;;;2.10;;
76155;SDS011;64906;51.290;7.348;2022-12-07T04:34:00;3.60;;;2.20;;
76155;SDS011;64906;51.290;7.348;2022-12-07T04:36:25;4.15;;;2.70;;
76155;SDS011;64906;51.290;7.348;2022-12-07T04:38:52;3.60;;;2.20;;
76155;SDS011;64906;51.290;7.348;2022-12-07T04:41:19;3.53;;;2.22;;
76155;SDS011;64906;51.290;7.348;2022-12-07T04:43:44;3.40;;;2.10;;
76155;SDS011;64906;51.290;7.348;2022-12-07T04:46:09;3.30;;;2.00;;
76155;SDS011;64906;51.290;7.348;2022-12-07T04:48:35;3.30;;;2.03;;
76155;SDS011;64906;51.290;7.348;2022-12-07T04:51:02;3.60;;;2.10;;
76155;SDS011;64906;51.290;7.348;2022-12-07T04:53:28;3.97;;;2.50;;
76155;SDS011;64906;51.290;7.348;2022-12-07T04:55:53;3.73;;;2.10;;
76155;SDS011;64906;51.290;7.348;2022-12-07T04:58:19;3.27;;;1.90;;
76155;SDS011;64906;51.290;7.348;2022-12-07T05:00:44;3.17;;;1.87;;
76155;SDS011;64906;51.290;7.348;2022-12-07T05:03:09;3.60;;;2.00;;
76155;SDS011;64906;51.290;7.348;2022-12-07T05:05:34;3.33;;;1.90;;
76155;SDS011;64906;51.290;7.348;2022-12-07T05:08:00;3.57;;;2.20;;
76155;SDS011;64906;51.290;7.348;2022-12-07T05:10:25;3.77;;;2.20;;
76155;SDS011;64906;51.290;7.348;2022-12-07T05:12:50;3.47;;;2.20;;
76155;SDS011;64906;51.290;7.348;2022-12-07T05:15:16;3.38;;;1.80;;
76155;SDS011;64906;51.290;7.348;2022-12-07T05:17:41;3.47;;;2.03;;
76155;SDS011;64906;51.290;7.348;2022-12-07T05:20:07;3.50;;;2.00;;
76155;SDS011;64906;51.290;7.348;2022-12-07T05:22:33;3.30;;;2.03;;
76155;SDS011;64906;51.290;7.348;2022-12-07T05:24:58;3.80;;;2.10;;
76155;SDS011;64906;51.290;7.348;2022-12-07T05:27:24;3.55;;;1.95;;
76155;SDS011;64906;51.290;7.348;2022-12-07T05:29:50;3.30;;;2.00;;
76155;SDS011;64906;51.290;7.348;2022-12-07T05:32:15;3.72;;;2.00;;
76155;SDS011;64906;51.290;7.348;2022-12-07T05:34:41;3.60;;;1.90;;
76155;SDS011;64906;51.290;7.348;2022-12-07T05:37:06;3.10;;;1.90;;
76155;SDS011;64906;51.290;7.348;2022-12-07T05:39:32;4.17;;;2.10;;
76155;SDS011;64906;51.290;7.348;2022-12-07T05:41:57;3.60;;;2.10;;
76155;SDS011;64906;51.290;7.348;2022-12-07T05:44:41;3.28;;;1.90;;
76155;SDS011;64906;51.290;7.348;2022-12-07T05:47:09;3.10;;;1.75;;
76155;SDS011;64906;51.290;7.348;2022-12-07T05:49:35;3.50;;;1.90;;
76155;SDS011;64906;51.290;7.348;2022-12-07T05:52:00;3.57;;;1.97;;
76155;SDS011;64906;51.290;7.348;2022-12-07T05:54:26;2.90;;;1.70;;
76155;SDS011;64906;51.290;7.348;2022-12-07T05:56:51;3.05;;;1.73;;
76155;SDS011;64906;51.290;7.348;2022-12-07T05:59:16;3.57;;;1.90;;
76155;SDS011;64906;51.290;7.348;2022-12-07T06:01:57;3.60;;;2.00;;
76155;SDS011;64906;51.290;7.348;2022-12-07T06:04:29;3.35;;;1.83;;
76155;SDS011;64906;51.290;7.348;2022-12-07T06:06:56;3.10;;;2.00;;
76155;SDS011;64906;51.290;7.348;2022-12-07T06:09:22;3.65;;;1.88;;
76155;SDS011;64906;51.290;7.348;2022-12-07T06:11:49;3.30;;;2.00;;
76155;SDS011;64906;51.290;7.348;2022-12-07T06:14:33;3.22;;;2.10;;
76155;SDS011;64906;51.290;7.348;2022-12-07T06:16:59;3.30;;;1.87;;
76155;SDS011;64906;51.290;7.348;2022-12-07T06:19:24;3.30;;;1.70;;
76155;SDS011;64906;51.290;7.348;2022-12-07T06:21:50;3.80;;;1.80;;
76155;SDS011;64906;51.290;7.348;2022-12-07T06:24:16;2.72;;;1.50;;
76155;SDS011;64906;51.290;7.348;2022-12-07T06:26:42;3.50;;;2.10;;
76155;SDS011;64906;51.290;7.348;2022-12-07T06:29:08;9.45;;;8.27;;
76155;SDS011;64906;51.290;7.348;2022-12-07T06:31:35;15.63;;;14.02;;
76155;SDS011;64906;51.290;7.348;2022-12-07T06:34:02;15.25;;;13.75;;
76155;SDS011;64906;51.290;7.348;2022-12-07T06:36:29;14.27;;;12.77;;
76155;SDS011;64906;51.290;7.348;2022-12-07T06:38:55;13.65;;;12.25;;
76155;SDS011;64906;51.290;7.348;2022-12-07T06:41:20;12.55;;;11.25;;
76155;SDS011;64906;51.290;7.348;2022-12-07T06:43:46;13.82;;;12.43;;
76155;SDS011;64906;51.290;7.348;2022-12-07T06:46:12;16.85;;;15.15;;
76155;SDS011;64906;51.290;7.348;2022-12-07T06:48:39;18.92;;;16.98;;
76155;SDS011;64906;51.290;7.348;2022-12-07T06:51:04;18.38;;;16.58;;
76155;SDS011;64906;51.290;7.348;2022-12-07T06:53:29;19.52;;;17.52;;
76155;SDS011;64906;51.290;7.348;2022-12-07T06:55:55;18.60;;;16.73;;
76155;SDS011;64906;51.290;7.348;2022-12-07T06:58:20;19.70;;;17.70;;
76155;SDS011;64906;51.290;7.348;2022-12-07T07:00:47;18.63;;;16.73;;
76155;SDS011;64906;51.290;7.348;2022-12-07T07:03:14;21.80;;;19.60;;
76155;SDS011;64906;51.290;7.348;2022-12-07T07:05:39;18.33;;;16.53;;
76155;SDS011;64906;51.290;7.348;2022-12-07T07:08:04;18.07;;;16.17;;
76155;SDS011;64906;51.290;7.348;2022-12-07T07:10:30;17.55;;;15.75;;
76155;SDS011;64906;51.290;7.348;2022-12-07T07:12:55;17.27;;;15.53;;
76155;SDS011;64906;51.290;7.348;2022-12-07T07:15:20;17.08;;;15.30;;
76155;SDS011;64906;51.290;7.348;2022-12-07T07:17:46;17.23;;;15.52;;
76155;SDS011;64906;51.290;7.348;2022-12-07T07:20:11;19.97;;;17.97;;
76155;SDS011;64906;51.290;7.348;2022-12-07T07:22:37;21.00;;;19.00;;
76155;SDS011;64906;51.290;7.348;2022-12-07T07:25:02;21.30;;;19.03;;
76155;SDS011;64906;51.290;7.348;2022-12-07T07:27:28;21.17;;;18.98;;
76155;SDS011;64906;51.290;7.348;2022-12-07T07:29:53;22.40;;;18.67;;
76155;SDS011;64906;51.290;7.348;2022-12-07T07:32:19;24.73;;;22.33;;
76155;SDS011;64906;51.290;7.348;2022-12-07T07:34:46;27.52;;;24.92;;
76155;SDS011;64906;51.290;7.348;2022-12-07T07:37:12;30.65;;;27.85;;
76155;SDS011;64906;51.290;7.348;2022-12-07T07:39:37;26.85;;;24.33;;
76155;SDS011;64906;51.290;7.348;2022-12-07T07:42:03;26.35;;;23.83;;
76155;SDS011;64906;51.290;7.348;2022-12-07T07:44:29;26.48;;;23.88;;
76155;SDS011;64906;51.290;7.348;2022-12-07T07:46:54;26.23;;;23.63;;
76155;SDS011;64906;51.290;7.348;2022-12-07T07:49:19;27.20;;;24.53;;
76155;SDS011;64906;51.290;7.348;2022-12-07T07:51:45;29.63;;;26.67;;
76155;SDS011;64906;51.290;7.348;2022-12-07T07:54:10;34.77;;;31.47;;
76155;SDS011;64906;51.290;7.348;2022-12-07T07:56:35;33.40;;;30.20;;
76155;SDS011;64906;51.290;7.348;2022-12-07T07:59:00;33.27;;;30.07;;
76155;SDS011;64906;51.290;7.348;2022-12-07T08:01:26;31.60;;;28.57;;
76155;SDS011;64906;51.290;7.348;2022-12-07T08:03:51;32.00;;;28.97;;
76155;SDS011;64906;51.290;7.348;2022-12-07T08:06:16;33.07;;;29.97;;
76155;SDS011;64906;51.290;7.348;2022-12-07T08:08:42;29.73;;;26.92;;
76155;SDS011;64906;51.290;7.348;2022-12-07T08:11:10;30.90;;;27.90;;
76155;SDS011;64906;51.290;7.348;2022-12-07T08:13:36;29.85;;;26.95;;
76155;SDS011;64906;51.290;7.348;2022-12-07T08:16:05;28.85;;;26.05;;
76155;SDS011;64906;51.290;7.348;2022-12-07T08:18:36;31.45;;;28.35;;
76155;SDS011;64906;51.290;7.348;2022-12-07T08:21:04;29.52;;;26.52;;
76155;SDS011;64906;51.290;7.348;2022-12-07T08:23:30;28.55;;;25.75;;
76155;SDS011;64906;51.290;7.348;2022-12-07T08:26:03;26.92;;;24.23;;
76155;SDS011;64906;51.290;7.348;2022-12-07T08:28:30;26.83;;;24.17;;
76155;SDS011;64906;51.290;7.348;2022-12-07T08:30:59;27.20;;;24.50;;
76155;SDS011;64906;51.290;7.348;2022-12-07T08:33:25;25.52;;;23.02;;
76155;SDS011;64906;51.290;7.348;2022-12-07T08:35:51;26.23;;;23.70;;
76155;SDS011;64906;51.290;7.348;2022-12-07T08:38:16;26.40;;;23.80;;
76155;SDS011;64906;51.290;7.348;2022-12-07T08:40:41;28.20;;;25.53;;
76155;SDS011;64906;51.290;7.348;2022-12-07T08:43:07;26.15;;;23.65;;
76155;SDS011;64906;51.290;7.348;2022-12-07T08:45:32;25.70;;;23.20;;
76155;SDS011;64906;51.290;7.348;2022-12-07T08:48:07;25.23;;;22.73;;
76155;SDS011;64906;51.290;7.348;2022-12-07T08:50:36;24.10;;;21.70;;
76155;SDS011;64906;51.290;7.348;2022-12-07T08:53:03;24.75;;;22.25;;
76155;SDS011;64906;51.290;7.348;2022-12-07T08:55:30;23.02;;;20.75;;
76155;SDS011;64906;51.290;7.348;2022-12-07T08:57:57;23.05;;;20.83;;
76155;SDS011;64906;51.290;7.348;2022-12-07T09:00:24;22.55;;;20.35;;
76155;SDS011;64906;51.290;7.348;2022-12-07T09:02:51;22.45;;;20.25;;
76155;SDS011;64906;51.290;7.348;2022-12-07T09:05:16;21.77;;;19.57;;
76155;SDS011;64906;51.290;7.348;2022-12-07T09:07:42;22.65;;;20.45;;
76155;SDS011;64906;51.290;7.348;2022-12-07T09:10:09;23.27;;;21.05;;
76155;SDS011;64906;51.290;7.348;2022-12-07T09:12:35;24.30;;;21.90;;
76155;SDS011;64906;51.290;7.348;2022-12-07T09:15:00;24.48;;;21.98;;
76155;SDS011;64906;51.290;7.348;2022-12-07T09:17:26;24.80;;;22.30;;
76155;SDS011;64906;51.290;7.348;2022-12-07T09:19:51;23.65;;;21.33;;
76155;SDS011;64906;51.290;7.348;2022-12-07T09:22:17;23.90;;;21.70;;
76155;SDS011;64906;51.290;7.348;2022-12-07T09:24:43;27.60;;;25.10;;
76155;SDS011;64906;51.290;7.348;2022-12-07T09:27:10;22.63;;;20.42;;
76155;SDS011;64906;51.290;7.348;2022-12-07T09:29:36;25.20;;;22.80;;
76155;SDS011;64906;51.290;7.348;2022-12-07T09:32:02;22.48;;;20.13;;
76155;SDS011;64906;51.290;7.348;2022-12-07T09:34:29;22.73;;;20.50;;
76155;SDS011;64906;51.290;7.348;2022-12-07T09:36:56;23.05;;;20.75;;
76155;SDS011;64906;51.290;7.348;2022-12-07T09:39:21;22.08;;;19.75;;
76155;SDS011;64906;51.290;7.348;2022-12-07T09:41:47;23.63;;;20.58;;
76155;SDS011;64906;51.290;7.348;2022-12-07T09:44:13;24.35;;;19.80;;
76155;SDS011;64906;51.290;7.348;2022-12-07T09:46:45;23.90;;;20.30;;
76155;SDS011;64906;51.290;7.348;2022-12-07T09:49:18;21.90;;;19.58;;
76155;SDS011;64906;51.290;7.348;2022-12-07T09:51:45;23.65;;;20.85;;
76155;SDS011;64906;51.290;7.348;2022-12-07T09:54:15;24.25;;;20.63;;
76155;SDS011;64906;51.290;7.348;2022-12-07T09:56:42;22.70;;;20.30;;
76155;SDS011;64906;51.290;7.348;2022-12-07T09:59:17;22.73;;;20.08;;
76155;SDS011;64906;51.290;7.348;2022-12-07T10:01:44;22.20;;;19.73;;
76155;SDS011;64906;51.290;7.348;2022-12-07T10:04:18;21.45;;;18.85;;
76155;SDS011;64906;51.290;7.348;2022-12-07T10:06:46;21.90;;;18.85;;
76155;SDS011;64906;51.290;7.348;2022-12-07T10:09:13;22.90;;;18.60;;
76155;SDS011;64906;51.290;7.348;2022-12-07T10:14:33;21.13;;;17.88;;
76155;SDS011;64906;51.290;7.348;2022-12-07T10:17:00;21.73;;;17.38;;
76155;SDS011;64906;51.290;7.348;2022-12-07T10:19:30;21.08;;;17.13;;
76155;SDS011;64906;51.290;7.348;2022-12-07T10:22:01;21.15;;;17.73;;
76155;SDS011;64906;51.290;7.348;2022-12-07T10:24:26;19.05;;;16.95;;
76155;SDS011;64906;51.290;7.348;2022-12-07T10:26:52;19.42;;;16.58;;
76155;SDS011;64906;51.290;7.348;2022-12-07T10:29:23;19.58;;;17.23;;
76155;SDS011;64906;51.290;7.348;2022-12-07T10:32:04;18.65;;;16.65;;
76155;SDS011;64906;51.290;7.348;2022-12-07T10:34:33;19.52;;;16.80;;
76155;SDS011;64906;51.290;7.348;2022-12-07T10:37:07;16.92;;;15.10;;
76155;SDS011;64906;51.290;7.348;2022-12-07T10:42:26;18.05;;;14.82;;
76155;SDS011;64906;51.290;7.348;2022-12-07T10:45:08;16.17;;;14.48;;
76155;SDS011;64906;51.290;7.348;2022-12-07T10:53:35;16.73;;;14.55;;
